ADDS METAR Data INFO
IDs: Format: Raw Decoded Include TAF

Data at: 1314 UTC 11 Dec 2017

KCDW 111253Z AUTO 23003KT 10SM FEW070 M01/M04 A3003 RMK AO2 SLP177 T10061044 TSNO
KCDW 111153Z AUTO 22004KT 10SM OVC070 00/M05 A3001 RMK AO2 SLP170 T00001050 10006 20000 51007 TSNO
KCDW 111053Z AUTO 22003KT 10SM OVC065 00/M06 A3001 RMK AO2 SLP168 T00001056 TSNO
KCDW 110953Z AUTO 24003KT 10SM OVC070 00/M06 A3000 RMK AO2 SLP166 T00001056 TSNO
KCDW 110853Z AUTO VRB04KT 10SM BKN060 OVC080 00/M06 A2999 RMK AO2 SLP163 T00001061 55003 TSNO
KCDW 110753Z AUTO 00000KT 10SM OVC100 00/M06 A2998 RMK AO2 SLP160 T00001061 TSNO
KCDW 110653Z AUTO VRB05KT 10SM OVC100 01/M06 A2999 RMK AO2 SLP163 T00061061 TSNO
KCDW 110553Z AUTO VRB04KT 10SM OVC100 01/M06 A3000 RMK AO2 SLP166 T00061061 10011 20006 58003 TSNO
KCDW 110453Z AUTO 23003KT 10SM OVC100 01/M07 A3001 RMK AO2 SLP168 T00061067 400331039 TSNO
KCDW 110353Z AUTO VRB04KT 10SM OVC100 01/M06 A3001 RMK AO2 SLP170 T00061061 TSNO
KCDW 110253Z VRB03KT 10SM BKN110 01/M06 A3001 RMK AO2 SLP169 T00061061 51008
KCDW 110153Z 23004KT 10SM FEW120 01/M06 A3001 RMK AO2 SLP168 T00061061
KCDW 110053Z 21004KT 10SM CLR 01/M06 A3001 RMK AO2 SLP168 T00111061
KCDW 102353Z 23004KT 10SM FEW120 01/M07 A2999 RMK AO2 SLP161 T00111067 10033 20011 51013
KCDW 102253Z VRB04KT 10SM FEW050 02/M07 A2998 RMK AO2 SLP159 T00171067
KCDW 102153Z 26008KT 230V290 10SM OVC055 02/M06 A2997 RMK AO2 SLP155 T00221061
KCDW 102053Z VRB04G15KT 10SM SCT043 BKN055 03/M06 A2995 RMK AO2 SLP149 T00281056 53012
KCDW 101953Z 28006KT 10SM BKN049 OVC055 03/M06 A2992 RMK AO2 SLP140 T00331056
KCDW 101853Z VRB05G16KT 10SM FEW049 03/M06 A2991 RMK AO2 SLP136 T00331061
KCDW 101753Z 26008G16KT 10SM FEW041 03/M06 A2991 RMK AO2 SLP137 T00331056 10033 21039 55003
KCDW 101653Z 29007KT 10SM CLR 03/M04 A2991 RMK AO2 SLP136 T00281044
KCDW 101553Z 26007KT 10SM CLR 02/M06 A2992 RMK AO2 SLP137 T00171056
KCDW 101453Z 27007KT 10SM CLR 01/M06 A2992 RMK AO2 SLP140 T00061061 51022
KCDW 101353Z 00000KT 10SM CLR M02/M06 A2991 RMK AO2 SLP137 T10221056
KCDW 101253Z AUTO 20004KT 10SM CLR M04/M06 A2989 RMK AO2 SLP129 T10391061 TSNO
KCDW 101153Z AUTO 20004KT 10SM SCT100 M03/M06 A2986 RMK AO2 SLP117 70020 T10331061 11011 21039 53030 TSNO
KCDW 101053Z AUTO 00000KT 10SM SCT120 M03/M06 A2982 RMK AO2 SLP106 T10281056 TSNO
KCDW 100953Z AUTO 23003KT 10SM CLR M03/M04 A2979 RMK AO2 SLP096 T10331044 TSNO
KCDW 100853Z AUTO 23003KT 10SM CLR M03/M04 A2977 RMK AO2 SLP087 T10281039 51008 TSNO
KCDW 100753Z AUTO 00000KT 10SM CLR M03/M03 A2977 RMK AO2 SLP087 T10281033 TSNO
KCDW 100653Z AUTO 20004KT 10SM SCT060 OVC100 M02/M02 A2975 RMK AO2 SLP080 T10171022 TSNO
KCDW 100553Z AUTO 19003KT 9SM OVC050 M02/M02 A2974 RMK AO2 SLP078 60000 T10171017 11011 21033 55001 TSNO
KCDW 100453Z AUTO 00000KT 6SM BR CLR M03/M03 A2973 RMK AO2 SNE0356 SLP075 P0000 T10281028 400111028 TSNO
KCDW 100353Z 00000KT 6SM -SN BR BKN060 OVC075 M02/M02 A2975 RMK AO2 SNB04 SLP080 P0000 T10171022
KCDW 100253Z 00000KT 9SM FEW042 BKN055 OVC090 M01/M02 A2974 RMK AO2 SNE45 SLP079 P0000 60000 T10111022 51000
KCDW 100222Z 33004KT 3SM -SN BR OVC037 M01/M02 A2975 RMK AO2 P0000 T10111017
KCDW 100208Z 00000KT 2 1/2SM -SN BR FEW029 OVC037 M01/M02 A2975 RMK AO2 P0000 T10111017
KCDW 100153Z 00000KT 3SM -SN BR FEW029 OVC037 M01/M02 A2974 RMK AO2 SLP079 P0000 T10111022